This is the latest recevied weather packets stored in our database for station/object DC0PP-10. If no packets are shown the sender has not sent any weather packets the latest 1 day(s).
| Time | Temp. | Humidity | Pressure | Rain* | Wind** | Luminosity | Snow |
|---|---|---|---|---|---|---|---|
| 1777716643 | 28.89° C | 33% | 1021.8 hPa | - | - | - | - |
| 1777715743 | 29.44° C | 31% | 1022 hPa | - | - | - | - |
| 1777714843 | 28.89° C | 33% | 1022.2 hPa | - | - | - | - |
| 1777713943 | 28.33° C | 33% | 1022.3 hPa | - | - | - | - |
| 1777713043 | 28.89° C | 32% | 1022.5 hPa | - | - | - | - |
| 1777712142 | 28.33° C | 33% | 1022.7 hPa | - | - | - | - |
| 1777711242 | 28.89° C | 34% | 1022.7 hPa | - | - | - | - |
| 1777710342 | 28.33° C | 34% | 1022.7 hPa | - | - | - | - |
| 1777709441 | 26.67° C | 37% | 1023 hPa | - | - | - | - |
| 1777708541 | 25.56° C | 36% | 1022.9 hPa | - | - | - | - |
| 1777707641 | 26.11° C | 36% | 1022.9 hPa | - | - | - | - |
| 1777706741 | 23.89° C | 38% | 1023 hPa | - | - | - | - |
| 1777705840 | 22.22° C | 40% | 1023.1 hPa | - | - | - | - |
| 1777704940 | 21.67° C | 41% | 1023.3 hPa | - | - | - | - |
| 1777704040 | 18.89° C | 45% | 1023.4 hPa | - | - | - | - |
| 1777703143 | 18.89° C | 46% | 1023.5 hPa | - | - | - | - |
| 1777702243 | 17.22° C | 49% | 1023.5 hPa | - | - | - | - |
| 1777701343 | 14.44° C | 59% | 1023.8 hPa | - | - | - | - |
| 1777700443 | 13.33° C | 60% | 1023.8 hPa | - | - | - | - |
| 1777699542 | 13.33° C | 58% | 1023.7 hPa | - | - | - | - |
| 1777698642 | 13.33° C | 60% | 1023.6 hPa | - | - | - | - |
* Rain since midnight (hover to see other rain measurements)
** Current wind speed in m/s (hover to see current wind gust speed)